Fountain Green, UT (84632)

08:54 MDT le 30 août 2016 (GMT -0600)
Skyline Mountain Resort Upper Mountain | | Change Station

Alt. 8327 ft 39.62 °N, 111.37 °W | Updated 48 seconds ago

Clear
Ciel dégagé
63.3 ° F
Paraît 63.3 ° F
N
0.0
Vent Variable Vent de SO
Gusts 0.0 mph

Aujourd'hui
Haut(e) -- | Bas -- ° F
--% Risque de précip.
Hier
Haut(e) -- | Bas -- ° F
Precip. -- pouce
Pression 30.07 pouce
Visibilité 10.0 Miles terrestres
Nuages Ciel dégagé
Point de rosée 31 ° F
Humidité 29%
Précipitations 0.00 pouce
Profondeur de la couche neigeuse Non disponible.
6:53 AM 7:59 PM
Lune descendante, 3% visible
METAR KPUC 301353Z AUTO 05005KT 10SM CLR 18/02 A3031 RMK AO2 SLP181 T01780022
Pression 30.07 pouce
Visibilité 10.0 Miles terrestres
Nuages Ciel dégagé
Point de rosée 31 ° F
Humidité 29%
Précipitations 0.00 pouce
Profondeur de la couche neigeuse Non disponible.
6:53 AM 7:59 PM
Lune descendante, 3% visible
METAR KPUC 301353Z AUTO 05005KT 10SM CLR 18/02 A3031 RMK AO2 SLP181 T01780022

10-Day Weather Forecast

Almanac

Astronomie

Aug. 30, 2016 Lever Coucher
Temps réel
Crépuscule civil
Crépuscule nautique
Crépuscule astronomique
Lune
Durée de lumière visible
Longueur du jour
Tomorrow will be .
, % of the Moon is Illuminated

Extrêmes aujourd'hui

State Highs State Lows

Community

WunderPhotos

Upload Photos

1,935,849 Photos téléchargées !

WunderBlog® & News

Nearby

Qualité de l'air

  Qualité de l'air Indice de la qualité de l'air Polluant
Not available.

Épaisseur de neige

Station Depth Altitude

Activité sismique

Ville Distance Mag. Time & Date
Minimum magnitude displayed is 2.5.

Températures des eaux côtières

Lieu Température

Stations

Stations météo à proximité

Emplacement de la station Température Refroidissement éolien Point de rosée Humidité Vent Precip. Alt. Mise à jour Type
                   

Watches & Warnings

There are currently no watches in effect.